ADDS METAR Data INFO
IDs: Format: Raw Decoded Include TAF

Data at: 1750 UTC 24 Mar 2017

METAR for:KLRD (Laredo Intl Apt, TX, US)
Text:KLRD 241656Z 00000KT 10SM FEW040 24/17 A2997 RMK AO2 SLP151 T02440172 $
Temperature: 24.4°C ( 76°F)
Dewpoint: 17.2°C ( 63°F) [RH = 64%]
Pressure (altimeter):29.97 inches Hg (1015.0 mb) [Sea level pressure: 1015.1 mb]
Winds:calm
Visibility:10 or more sm (16+ km)
Ceiling:at least 12,000 feet AGL
Clouds: few clouds at 4000 feet AGL
QC Flag:SOME DATA ABOVE MAY BE INACCURATE!!!"$" is an indication the sensor requires maintenance.


Page loaded:  17:50 UTC  |   10:50 AM Pacific  |   11:50 AM Mountain  |   12:50 PM Central  |   01:50 PM Eastern

 

ADVISORIES

FORECASTS

FORECASTS

OBSERVATIONS

USER TOOLS

ABOUT US